Flight Track Log - Related Links

Times and Time Zones

All times are in EDT time to prevent confusion due to time zone crossing. See the CHH7916 flight status page for this flight to view local times or setup timezone preferences in your user account.

Time Position Orientation Groundspeed Altitude Reporting Facility
EDT Latitude Longitude Course Direction KTS MPH feet Rate Location/Type
Fri 03:39:09 AM 52.2790 104.3500 294° West 160 184 3,300  Level FlightAware ADS-B
Fri 03:39:39 AM 52.2900 104.3110 295° West 196 226 4,000 1,429 Climbing FlightAware ADS-B
Fri 03:39:51 AM 52.2970 104.2980 311° West 206 237 4,300 1,250 Climbing FlightAware ADS-B
Fri 03:40:03 AM 52.3090 104.2920 343° North 224 258 4,500 2,426 Climbing FlightAware ADS-B
Fri 03:40:38 AM 52.3460 104.3150 21° North 241 277 6,200 2,857 Climbing FlightAware ADS-B
Fri 03:40:45 AM 52.3510 104.3280 58° Northeast 243 280 6,500 2,087 Climbing FlightAware ADS-B
Fri 03:41:01 AM 52.3550 104.3530 75° East 256 295 7,000 2,348 Climbing FlightAware ADS-B
Fri 03:41:31 AM 52.3400 104.4150 112° Southeast 299 344 8,300 2,400 Climbing FlightAware ADS-B
Fri 03:42:01 AM 52.3210 104.4700 119° Southeast 300 345 9,400 2,318 Climbing FlightAware ADS-B
Fri 03:42:15 AM 52.3140 104.4940 115° Southeast 323 372 10,000 2,889 Climbing FlightAware ADS-B
Fri 03:42:55 AM 52.3020 104.6590 97° East 352 405 12,000 1,974 Climbing FlightAware ADS-B
Fri 03:43:31 AM 52.3010 104.6940 93° East 369 425 12,500 1,948 Climbing FlightAware ADS-B
Fri 03:44:12 AM 52.2980 104.8040 93° East 380 437 14,500 3,073 Climbing FlightAware ADS-B
Fri 03:44:53 AM 52.2950 104.9240 92° East 388 447 16,700 3,000 Climbing FlightAware ADS-B
Fri 03:45:28 AM 52.2920 105.0280 93° East 398 458 18,300 2,053 Climbing FlightAware ADS-B
Fri 03:46:09 AM 52.2850 105.2270 93° East 412 474 19,300 1,229 Climbing FlightAware ADS-B
Fri 03:46:51 AM 52.2840 105.2750 92° East 411 473 20,000 1,714 Climbing FlightAware ADS-B
Fri 03:47:33 AM 52.2830 105.4110 91° East 424 488 21,700 2,400 Climbing FlightAware ADS-B
Fri 03:48:21 AM 52.2860 105.5700 88° East 437 503 23,600 2,329 Climbing FlightAware ADS-B
Fri 03:48:58 AM 52.2890 105.6980 88° East 444 511 25,000 2,025 Climbing FlightAware ADS-B
Fri 03:49:41 AM 52.2910 105.8330 89° East 451 519 26,300 1,671 Climbing FlightAware ADS-B
Fri 03:50:17 AM 52.2930 105.9530 88° East 460 529 27,200 955 Climbing FlightAware ADS-B
Fri 03:51:09 AM 52.2960 106.1010 88° East 465 535 27,700 3,154 Climbing FlightAware ADS-B
Fri 03:51:35 AM 52.3240 106.3210 78° East 457 526 31,300 3,565 Climbing FlightAware ADS-B
Fri 03:52:18 AM 52.3340 106.3540 64° Northeast 453 521 31,800 1,200 Climbing FlightAware ADS-B
Fri 03:53:00 AM 52.3680 106.5910 77° East 442 509 33,000 867 Climbing FlightAware ADS-B
Fri 03:53:41 AM 52.3600 106.7360 95° East 447 514 33,000  Level FlightAware ADS-B
Fri 03:54:37 AM 52.3500 106.9150 95° East 453 521 33,000  Level FlightAware ADS-B
Fri 03:55:37 AM 52.3390 107.1180 95° East 454 522 33,000  Level FlightAware ADS-B
Fri 03:56:22 AM 52.3290 107.2840 96° East 454 522 33,000  Level FlightAware ADS-B
Fri 03:56:57 AM 52.3220 107.4060 95° East 455 524 33,000  Level FlightAware ADS-B
Fri 03:58:03 AM 52.3110 107.6100 95° East 455 524 33,000  Level FlightAware ADS-B
Fri 03:58:39 AM 52.3050 107.7150 95° East 455 524 33,000  Level FlightAware ADS-B
Fri 03:59:15 AM 52.3130 107.5720 275° West 455 524 33,000 126 Level FlightAware ADS-B
Fri 04:00:14 AM 52.3120 107.5750 119° Southeast 455 524 33,200 632 Climbing FlightAware ADS-B
Fri 04:00:50 AM 52.3120 107.5750 119° Southeast 455 524 34,000 571 Climbing FlightAware ADS-B
Fri 04:01:38 AM 52.3050 107.7150 95° East 455 524 34,000  Level FlightAware ADS-B
Fri 04:02:14 AM 52.2990 107.8200 95° East 455 524 34,000  Level FlightAware ADS-B
Fri 04:03:02 AM 52.2920 107.9600 95° East 455 524 34,000  Level FlightAware ADS-B
Fri 04:03:38 AM 52.2860 108.0650 95° East 455 524 34,000  Level FlightAware ADS-B
Fri 04:04:14 AM 52.2810 108.1700 94° East 455 524 34,000  Level FlightAware ADS-B
Fri 04:05:02 AM 52.2730 108.3090 95° East 455 524 34,000  Level FlightAware ADS-B
Fri 04:05:39 AM 52.2670 108.4170 95° East 455 524 34,000  Level FlightAware ADS-B
Fri 04:06:15 AM 52.2620 108.5220 94° East 455 524 34,000  Level FlightAware ADS-B
Fri 04:07:15 AM 52.2520 108.6970 95° East 455 524 34,000  Level FlightAware ADS-B
Fri 04:07:51 AM 52.2470 108.8010 94° East 455 524 34,000  Level FlightAware ADS-B
Fri 04:08:51 AM 52.2370 108.9760 95° East 455 524 34,000  Level FlightAware ADS-B
Fri 04:09:27 AM 52.2320 109.0810 94° East 455 524 34,000  Level FlightAware ADS-B
Fri 04:10:15 AM 52.2240 109.2210 95° East 455 524 34,000  Level FlightAware ADS-B

Login

Don't have an account? Register now (free) for customized features, flight alerts, and more!